sensor_id;sensor_type;location;lat;lon;timestamp;P1;durP1;ratioP1;P2;durP2;ratioP2
15261;SDS011;7733;51.554;13.590;2023-02-05T00:00:38;7.63;;;5.50;;
15261;SDS011;7733;51.554;13.590;2023-02-05T00:03:04;4.13;;;3.13;;
15261;SDS011;7733;51.554;13.590;2023-02-05T00:05:29;3.83;;;2.80;;
15261;SDS011;7733;51.554;13.590;2023-02-05T00:07:55;1.80;;;1.70;;
15261;SDS011;7733;51.554;13.590;2023-02-05T00:10:21;1.80;;;1.70;;
15261;SDS011;7733;51.554;13.590;2023-02-05T00:12:46;1.70;;;1.60;;
15261;SDS011;7733;51.554;13.590;2023-02-05T00:15:12;1.97;;;1.77;;
15261;SDS011;7733;51.554;13.590;2023-02-05T00:17:38;2.60;;;1.73;;
15261;SDS011;7733;51.554;13.590;2023-02-05T00:20:04;2.57;;;1.97;;
15261;SDS011;7733;51.554;13.590;2023-02-05T00:22:31;2.07;;;1.97;;
15261;SDS011;7733;51.554;13.590;2023-02-05T00:24:57;16.23;;;13.83;;
15261;SDS011;7733;51.554;13.590;2023-02-05T00:27:22;15.20;;;11.80;;
15261;SDS011;7733;51.554;13.590;2023-02-05T00:29:48;14.73;;;12.00;;
15261;SDS011;7733;51.554;13.590;2023-02-05T00:32:14;9.93;;;8.53;;
15261;SDS011;7733;51.554;13.590;2023-02-05T00:34:39;10.13;;;7.43;;
15261;SDS011;7733;51.554;13.590;2023-02-05T00:37:06;9.40;;;8.40;;
15261;SDS011;7733;51.554;13.590;2023-02-05T00:39:32;11.77;;;8.93;;
15261;SDS011;7733;51.554;13.590;2023-02-05T00:41:57;11.20;;;8.67;;
15261;SDS011;7733;51.554;13.590;2023-02-05T00:44:23;5.97;;;5.13;;
15261;SDS011;7733;51.554;13.590;2023-02-05T00:46:49;3.23;;;2.97;;
15261;SDS011;7733;51.554;13.590;2023-02-05T00:49:15;3.17;;;2.97;;
15261;SDS011;7733;51.554;13.590;2023-02-05T00:51:40;2.60;;;2.40;;
15261;SDS011;7733;51.554;13.590;2023-02-05T00:54:06;2.57;;;2.10;;
15261;SDS011;7733;51.554;13.590;2023-02-05T00:56:32;2.87;;;1.90;;
15261;SDS011;7733;51.554;13.590;2023-02-05T00:58:57;1.60;;;1.50;;
15261;SDS011;7733;51.554;13.590;2023-02-05T01:01:24;1.50;;;1.50;;
15261;SDS011;7733;51.554;13.590;2023-02-05T01:03:49;2.57;;;1.80;;
15261;SDS011;7733;51.554;13.590;2023-02-05T01:06:15;2.53;;;1.47;;
15261;SDS011;7733;51.554;13.590;2023-02-05T01:08:41;2.33;;;1.50;;
15261;SDS011;7733;51.554;13.590;2023-02-05T01:11:07;1.43;;;1.33;;
15261;SDS011;7733;51.554;13.590;2023-02-05T01:13:35;1.53;;;1.43;;
15261;SDS011;7733;51.554;13.590;2023-02-05T01:16:02;2.70;;;1.40;;
15261;SDS011;7733;51.554;13.590;2023-02-05T01:18:29;1.37;;;1.20;;
15261;SDS011;7733;51.554;13.590;2023-02-05T01:20:54;2.53;;;2.33;;
15261;SDS011;7733;51.554;13.590;2023-02-05T01:23:20;4.30;;;3.80;;
15261;SDS011;7733;51.554;13.590;2023-02-05T01:25:46;3.70;;;3.40;;
15261;SDS011;7733;51.554;13.590;2023-02-05T01:28:12;2.30;;;2.10;;
15261;SDS011;7733;51.554;13.590;2023-02-05T01:30:38;2.53;;;1.63;;
15261;SDS011;7733;51.554;13.590;2023-02-05T01:33:03;1.63;;;1.50;;
15261;SDS011;7733;51.554;13.590;2023-02-05T01:35:29;1.80;;;1.70;;
15261;SDS011;7733;51.554;13.590;2023-02-05T01:37:56;1.83;;;1.63;;
15261;SDS011;7733;51.554;13.590;2023-02-05T01:40:21;2.00;;;1.90;;
15261;SDS011;7733;51.554;13.590;2023-02-05T01:42:47;2.27;;;2.03;;
15261;SDS011;7733;51.554;13.590;2023-02-05T01:47:54;1.80;;;1.70;;
15261;SDS011;7733;51.554;13.590;2023-02-05T01:50:36;1.60;;;1.50;;
15261;SDS011;7733;51.554;13.590;2023-02-05T01:53:14;1.90;;;1.30;;
15261;SDS011;7733;51.554;13.590;2023-02-05T01:55:52;1.43;;;1.43;;
15261;SDS011;7733;51.554;13.590;2023-02-05T01:58:24;1.33;;;1.20;;
15261;SDS011;7733;51.554;13.590;2023-02-05T02:00:56;3.00;;;1.43;;
15261;SDS011;7733;51.554;13.590;2023-02-05T02:03:22;2.33;;;1.30;;
15261;SDS011;7733;51.554;13.590;2023-02-05T02:05:52;2.27;;;2.00;;
15261;SDS011;7733;51.554;13.590;2023-02-05T02:08:20;2.67;;;1.47;;
15261;SDS011;7733;51.554;13.590;2023-02-05T02:10:46;2.10;;;1.57;;
15261;SDS011;7733;51.554;13.590;2023-02-05T02:13:16;2.90;;;2.80;;
15261;SDS011;7733;51.554;13.590;2023-02-05T02:15:46;3.20;;;3.00;;
15261;SDS011;7733;51.554;13.590;2023-02-05T02:18:15;3.07;;;2.87;;
15261;SDS011;7733;51.554;13.590;2023-02-05T02:29:33;2.20;;;1.43;;
15261;SDS011;7733;51.554;13.590;2023-02-05T02:32:15;1.70;;;1.60;;
15261;SDS011;7733;51.554;13.590;2023-02-05T02:37:51;1.50;;;1.13;;
15261;SDS011;7733;51.554;13.590;2023-02-05T02:40:52;1.40;;;1.40;;
15261;SDS011;7733;51.554;13.590;2023-02-05T02:43:25;1.30;;;1.30;;
15261;SDS011;7733;51.554;13.590;2023-02-05T02:46:04;1.60;;;1.50;;
15261;SDS011;7733;51.554;13.590;2023-02-05T02:48:37;1.60;;;1.50;;
15261;SDS011;7733;51.554;13.590;2023-02-05T02:51:06;1.30;;;1.20;;
15261;SDS011;7733;51.554;13.590;2023-02-05T02:53:37;2.00;;;1.40;;
15261;SDS011;7733;51.554;13.590;2023-02-05T02:56:11;2.63;;;1.70;;
15261;SDS011;7733;51.554;13.590;2023-02-05T03:01:11;1.87;;;1.77;;
15261;SDS011;7733;51.554;13.590;2023-02-05T03:03:41;1.37;;;1.27;;
15261;SDS011;7733;51.554;13.590;2023-02-05T03:06:17;1.60;;;1.50;;
15261;SDS011;7733;51.554;13.590;2023-02-05T03:08:49;1.63;;;1.53;;
15261;SDS011;7733;51.554;13.590;2023-02-05T03:11:33;1.07;;;1.03;;
15261;SDS011;7733;51.554;13.590;2023-02-05T03:13:59;1.80;;;1.70;;
15261;SDS011;7733;51.554;13.590;2023-02-05T03:16:25;1.30;;;1.30;;
15261;SDS011;7733;51.554;13.590;2023-02-05T03:18:52;1.77;;;1.67;;
15261;SDS011;7733;51.554;13.590;2023-02-05T03:23:53;2.00;;;1.90;;
15261;SDS011;7733;51.554;13.590;2023-02-05T03:26:23;1.93;;;1.83;;
15261;SDS011;7733;51.554;13.590;2023-02-05T03:28:55;2.27;;;2.07;;
15261;SDS011;7733;51.554;13.590;2023-02-05T03:31:27;2.00;;;1.90;;
15261;SDS011;7733;51.554;13.590;2023-02-05T03:43:05;1.63;;;1.53;;
15261;SDS011;7733;51.554;13.590;2023-02-05T04:00:09;1.47;;;1.37;;
15261;SDS011;7733;51.554;13.590;2023-02-05T04:02:37;2.03;;;1.50;;
15261;SDS011;7733;51.554;13.590;2023-02-05T04:05:03;1.33;;;1.33;;
15261;SDS011;7733;51.554;13.590;2023-02-05T04:07:29;1.40;;;1.30;;
15261;SDS011;7733;51.554;13.590;2023-02-05T04:09:54;1.70;;;1.60;;
15261;SDS011;7733;51.554;13.590;2023-02-05T04:12:20;1.40;;;1.40;;
15261;SDS011;7733;51.554;13.590;2023-02-05T04:14:46;1.83;;;1.50;;
15261;SDS011;7733;51.554;13.590;2023-02-05T04:17:12;2.97;;;1.43;;
15261;SDS011;7733;51.554;13.590;2023-02-05T04:19:37;1.40;;;1.30;;
15261;SDS011;7733;51.554;13.590;2023-02-05T04:22:05;1.70;;;1.60;;
15261;SDS011;7733;51.554;13.590;2023-02-05T04:24:31;1.60;;;1.50;;
15261;SDS011;7733;51.554;13.590;2023-02-05T04:26:57;1.97;;;1.80;;
15261;SDS011;7733;51.554;13.590;2023-02-05T04:29:23;1.23;;;1.20;;
15261;SDS011;7733;51.554;13.590;2023-02-05T04:31:48;1.60;;;1.10;;
15261;SDS011;7733;51.554;13.590;2023-02-05T04:34:14;1.77;;;1.67;;
15261;SDS011;7733;51.554;13.590;2023-02-05T04:36:40;1.47;;;1.37;;
15261;SDS011;7733;51.554;13.590;2023-02-05T04:39:06;1.53;;;1.43;;
15261;SDS011;7733;51.554;13.590;2023-02-05T04:41:31;1.50;;;1.40;;
15261;SDS011;7733;51.554;13.590;2023-02-05T04:43:57;1.50;;;1.40;;
15261;SDS011;7733;51.554;13.590;2023-02-05T04:46:23;1.50;;;1.40;;
15261;SDS011;7733;51.554;13.590;2023-02-05T04:48:49;1.30;;;1.20;;
15261;SDS011;7733;51.554;13.590;2023-02-05T04:51:14;1.40;;;1.30;;
15261;SDS011;7733;51.554;13.590;2023-02-05T04:53:41;1.40;;;1.40;;
15261;SDS011;7733;51.554;13.590;2023-02-05T04:56:08;1.60;;;1.23;;
15261;SDS011;7733;51.554;13.590;2023-02-05T04:58:40;1.63;;;1.53;;
15261;SDS011;7733;51.554;13.590;2023-02-05T05:01:10;1.70;;;1.47;;
15261;SDS011;7733;51.554;13.590;2023-02-05T05:03:38;1.90;;;1.47;;
15261;SDS011;7733;51.554;13.590;2023-02-05T05:06:05;1.73;;;1.63;;
15261;SDS011;7733;51.554;13.590;2023-02-05T05:08:31;3.30;;;1.60;;
15261;SDS011;7733;51.554;13.590;2023-02-05T05:10:58;2.07;;;1.90;;
15261;SDS011;7733;51.554;13.590;2023-02-05T05:13:24;3.00;;;1.50;;
15261;SDS011;7733;51.554;13.590;2023-02-05T05:15:53;1.80;;;1.60;;
15261;SDS011;7733;51.554;13.590;2023-02-05T05:18:20;1.90;;;1.80;;
15261;SDS011;7733;51.554;13.590;2023-02-05T05:20:46;1.60;;;1.50;;
15261;SDS011;7733;51.554;13.590;2023-02-05T05:23:12;1.40;;;1.30;;
15261;SDS011;7733;51.554;13.590;2023-02-05T05:25:44;3.43;;;1.63;;
15261;SDS011;7733;51.554;13.590;2023-02-05T05:28:12;2.23;;;2.13;;
15261;SDS011;7733;51.554;13.590;2023-02-05T05:30:40;2.60;;;2.40;;
15261;SDS011;7733;51.554;13.590;2023-02-05T05:33:09;2.20;;;2.00;;
15261;SDS011;7733;51.554;13.590;2023-02-05T05:35:35;1.87;;;1.77;;
15261;SDS011;7733;51.554;13.590;2023-02-05T05:38:02;2.40;;;1.50;;
15261;SDS011;7733;51.554;13.590;2023-02-05T05:40:29;1.93;;;1.80;;
15261;SDS011;7733;51.554;13.590;2023-02-05T05:43:16;2.00;;;1.90;;
15261;SDS011;7733;51.554;13.590;2023-02-05T05:46:03;1.90;;;1.80;;
15261;SDS011;7733;51.554;13.590;2023-02-05T05:48:31;3.63;;;1.70;;
15261;SDS011;7733;51.554;13.590;2023-02-05T05:50:57;1.90;;;1.67;;
15261;SDS011;7733;51.554;13.590;2023-02-05T05:53:22;1.87;;;1.77;;
15261;SDS011;7733;51.554;13.590;2023-02-05T05:55:48;2.27;;;1.77;;
15261;SDS011;7733;51.554;13.590;2023-02-05T05:58:14;1.80;;;1.70;;
15261;SDS011;7733;51.554;13.590;2023-02-05T06:00:40;1.70;;;1.60;;
15261;SDS011;7733;51.554;13.590;2023-02-05T06:03:08;1.70;;;1.60;;
15261;SDS011;7733;51.554;13.590;2023-02-05T06:05:35;1.70;;;1.60;;
15261;SDS011;7733;51.554;13.590;2023-02-05T06:08:01;1.80;;;1.70;;
15261;SDS011;7733;51.554;13.590;2023-02-05T06:10:28;1.67;;;1.67;;
15261;SDS011;7733;51.554;13.590;2023-02-05T06:12:54;2.83;;;1.80;;
15261;SDS011;7733;51.554;13.590;2023-02-05T06:15:21;1.90;;;1.80;;
15261;SDS011;7733;51.554;13.590;2023-02-05T06:17:47;1.70;;;1.60;;
15261;SDS011;7733;51.554;13.590;2023-02-05T06:20:13;4.43;;;2.10;;
15261;SDS011;7733;51.554;13.590;2023-02-05T06:22:39;3.00;;;2.80;;
15261;SDS011;7733;51.554;13.590;2023-02-05T06:25:05;2.43;;;2.33;;
15261;SDS011;7733;51.554;13.590;2023-02-05T06:27:31;2.73;;;2.53;;
15261;SDS011;7733;51.554;13.590;2023-02-05T06:29:57;2.47;;;2.20;;
15261;SDS011;7733;51.554;13.590;2023-02-05T06:32:23;2.57;;;2.30;;
15261;SDS011;7733;51.554;13.590;2023-02-05T06:34:49;2.57;;;2.17;;
15261;SDS011;7733;51.554;13.590;2023-02-05T06:37:14;2.43;;;2.27;;
15261;SDS011;7733;51.554;13.590;2023-02-05T06:39:40;2.23;;;2.10;;
15261;SDS011;7733;51.554;13.590;2023-02-05T06:42:06;2.07;;;1.97;;
15261;SDS011;7733;51.554;13.590;2023-02-05T06:44:32;2.17;;;2.07;;
15261;SDS011;7733;51.554;13.590;2023-02-05T06:46:58;2.30;;;2.20;;
15261;SDS011;7733;51.554;13.590;2023-02-05T06:49:25;1.97;;;1.87;;
15261;SDS011;7733;51.554;13.590;2023-02-05T06:51:51;2.50;;;2.30;;
15261;SDS011;7733;51.554;13.590;2023-02-05T06:54:16;2.90;;;2.70;;
15261;SDS011;7733;51.554;13.590;2023-02-05T06:56:42;2.63;;;2.43;;
15261;SDS011;7733;51.554;13.590;2023-02-05T06:59:08;3.03;;;2.67;;
15261;SDS011;7733;51.554;13.590;2023-02-05T07:01:34;3.50;;;3.10;;
15261;SDS011;7733;51.554;13.590;2023-02-05T07:03:59;4.03;;;3.73;;
15261;SDS011;7733;51.554;13.590;2023-02-05T07:06:25;7.43;;;6.83;;
15261;SDS011;7733;51.554;13.590;2023-02-05T07:08:53;6.53;;;5.97;;
15261;SDS011;7733;51.554;13.590;2023-02-05T07:11:19;4.27;;;3.97;;
15261;SDS011;7733;51.554;13.590;2023-02-05T07:13:46;3.10;;;2.90;;
15261;SDS011;7733;51.554;13.590;2023-02-05T07:16:12;4.47;;;4.17;;
15261;SDS011;7733;51.554;13.590;2023-02-05T07:18:38;3.90;;;3.60;;
15261;SDS011;7733;51.554;13.590;2023-02-05T07:21:06;4.87;;;4.47;;
15261;SDS011;7733;51.554;13.590;2023-02-05T07:23:34;3.77;;;3.57;;
15261;SDS011;7733;51.554;13.590;2023-02-05T07:26:11;3.40;;;3.20;;
15261;SDS011;7733;51.554;13.590;2023-02-05T07:28:40;4.37;;;3.97;;
15261;SDS011;7733;51.554;13.590;2023-02-05T07:31:08;4.90;;;4.50;;
15261;SDS011;7733;51.554;13.590;2023-02-05T07:33:39;3.47;;;3.17;;
15261;SDS011;7733;51.554;13.590;2023-02-05T07:36:07;3.23;;;3.03;;
15261;SDS011;7733;51.554;13.590;2023-02-05T07:38:35;3.97;;;3.67;;
15261;SDS011;7733;51.554;13.590;2023-02-05T07:41:05;20.77;;;16.43;;
15261;SDS011;7733;51.554;13.590;2023-02-05T07:43:34;9.70;;;8.07;;
15261;SDS011;7733;51.554;13.590;2023-02-05T07:46:02;4.97;;;4.57;;
15261;SDS011;7733;51.554;13.590;2023-02-05T07:48:33;5.73;;;5.27;;
15261;SDS011;7733;51.554;13.590;2023-02-05T07:50:59;4.83;;;4.43;;
15261;SDS011;7733;51.554;13.590;2023-02-05T07:53:25;4.53;;;4.23;;
15261;SDS011;7733;51.554;13.590;2023-02-05T07:55:52;4.07;;;3.67;;
15261;SDS011;7733;51.554;13.590;2023-02-05T07:58:17;4.57;;;4.00;;
15261;SDS011;7733;51.554;13.590;2023-02-05T08:00:43;3.90;;;3.60;;
15261;SDS011;7733;51.554;13.590;2023-02-05T08:03:10;5.00;;;4.50;;
15261;SDS011;7733;51.554;13.590;2023-02-05T08:05:37;5.20;;;4.70;;
15261;SDS011;7733;51.554;13.590;2023-02-05T08:08:04;5.17;;;4.70;;
15261;SDS011;7733;51.554;13.590;2023-02-05T08:10:31;4.57;;;4.17;;
15261;SDS011;7733;51.554;13.590;2023-02-05T08:12:57;4.70;;;4.30;;
15261;SDS011;7733;51.554;13.590;2023-02-05T08:15:23;4.60;;;4.20;;
15261;SDS011;7733;51.554;13.590;2023-02-05T08:17:48;5.03;;;4.60;;
15261;SDS011;7733;51.554;13.590;2023-02-05T08:20:14;5.10;;;4.70;;
15261;SDS011;7733;51.554;13.590;2023-02-05T08:22:41;4.43;;;4.13;;
15261;SDS011;7733;51.554;13.590;2023-02-05T08:25:09;5.03;;;4.17;;
15261;SDS011;7733;51.554;13.590;2023-02-05T08:27:38;3.83;;;3.60;;
15261;SDS011;7733;51.554;13.590;2023-02-05T08:30:07;4.77;;;4.27;;
15261;SDS011;7733;51.554;13.590;2023-02-05T08:32:37;4.00;;;3.70;;
15261;SDS011;7733;51.554;13.590;2023-02-05T08:35:03;5.40;;;3.70;;
15261;SDS011;7733;51.554;13.590;2023-02-05T08:37:29;3.03;;;2.83;;
15261;SDS011;7733;51.554;13.590;2023-02-05T08:39:55;5.67;;;3.57;;
15261;SDS011;7733;51.554;13.590;2023-02-05T08:42:21;3.90;;;3.17;;
15261;SDS011;7733;51.554;13.590;2023-02-05T08:44:48;3.60;;;3.30;;
15261;SDS011;7733;51.554;13.590;2023-02-05T08:47:17;4.07;;;3.77;;
15261;SDS011;7733;51.554;13.590;2023-02-05T08:49:44;3.97;;;3.60;;
15261;SDS011;7733;51.554;13.590;2023-02-05T08:52:10;4.07;;;3.77;;
15261;SDS011;7733;51.554;13.590;2023-02-05T08:54:36;3.73;;;3.43;;
15261;SDS011;7733;51.554;13.590;2023-02-05T08:57:02;3.60;;;3.07;;
15261;SDS011;7733;51.554;13.590;2023-02-05T08:59:28;3.60;;;3.30;;
15261;SDS011;7733;51.554;13.590;2023-02-05T09:01:54;3.93;;;2.77;;
15261;SDS011;7733;51.554;13.590;2023-02-05T09:04:20;3.37;;;3.03;;
15261;SDS011;7733;51.554;13.590;2023-02-05T09:06:49;3.40;;;3.10;;
15261;SDS011;7733;51.554;13.590;2023-02-05T09:09:16;3.83;;;3.10;;
15261;SDS011;7733;51.554;13.590;2023-02-05T09:11:42;3.30;;;2.93;;
15261;SDS011;7733;51.554;13.590;2023-02-05T09:14:11;4.70;;;4.20;;
15261;SDS011;7733;51.554;13.590;2023-02-05T09:16:37;9.07;;;7.50;;
15261;SDS011;7733;51.554;13.590;2023-02-05T09:19:04;7.27;;;6.67;;
15261;SDS011;7733;51.554;13.590;2023-02-05T09:21:30;7.77;;;7.07;;
15261;SDS011;7733;51.554;13.590;2023-02-05T09:23:56;4.80;;;4.50;;
15261;SDS011;7733;51.554;13.590;2023-02-05T09:26:22;4.20;;;3.40;;
15261;SDS011;7733;51.554;13.590;2023-02-05T09:28:49;3.20;;;3.00;;
15261;SDS011;7733;51.554;13.590;2023-02-05T09:31:15;3.20;;;3.00;;
15261;SDS011;7733;51.554;13.590;2023-02-05T09:33:43;4.20;;;3.80;;
15261;SDS011;7733;51.554;13.590;2023-02-05T09:36:17;3.70;;;3.40;;
15261;SDS011;7733;51.554;13.590;2023-02-05T09:38:45;4.47;;;4.07;;
15261;SDS011;7733;51.554;13.590;2023-02-05T09:43:56;3.30;;;3.00;;
15261;SDS011;7733;51.554;13.590;2023-02-05T09:52:37;3.40;;;3.20;;
15261;SDS011;7733;51.554;13.590;2023-02-05T09:57:50;2.80;;;2.60;;
15261;SDS011;7733;51.554;13.590;2023-02-05T10:00:26;2.70;;;2.50;;
15261;SDS011;7733;51.554;13.590;2023-02-05T10:12:27;4.23;;;3.53;;
15261;SDS011;7733;51.554;13.590;2023-02-05T10:28:30;5.90;;;5.30;;
15261;SDS011;7733;51.554;13.590;2023-02-05T10:30:52;4.13;;;3.30;;
15261;SDS011;7733;51.554;13.590;2023-02-05T10:33:39;14.57;;;10.10;;
15261;SDS011;7733;51.554;13.590;2023-02-05T10:36:08;6.20;;;5.60;;
15261;SDS011;7733;51.554;13.590;2023-02-05T10:38:44;4.47;;;4.00;;
15261;SDS011;7733;51.554;13.590;2023-02-05T10:41:14;3.23;;;2.17;;
15261;SDS011;7733;51.554;13.590;2023-02-05T10:46:30;7.50;;;6.80;;
15261;SDS011;7733;51.554;13.590;2023-02-05T10:49:12;7.17;;;6.47;;
15261;SDS011;7733;51.554;13.590;2023-02-05T10:51:47;3.30;;;3.00;;
15261;SDS011;7733;51.554;13.590;2023-02-05T10:54:22;3.13;;;2.50;;
15261;SDS011;7733;51.554;13.590;2023-02-05T10:56:56;3.80;;;3.50;;
15261;SDS011;7733;51.554;13.590;2023-02-05T10:59:29;3.20;;;3.00;;
15261;SDS011;7733;51.554;13.590;2023-02-05T11:02:05;2.00;;;1.90;;
15261;SDS011;7733;51.554;13.590;2023-02-05T11:04:47;2.40;;;2.20;;
15261;SDS011;7733;51.554;13.590;2023-02-05T11:07:24;1.60;;;1.40;;
15261;SDS011;7733;51.554;13.590;2023-02-05T11:10:42;2.37;;;1.60;;
15261;SDS011;7733;51.554;13.590;2023-02-05T11:12:56;2.07;;;1.83;;
15261;SDS011;7733;51.554;13.590;2023-02-05T11:15:55;1.60;;;1.40;;
15261;SDS011;7733;51.554;13.590;2023-02-05T11:18:31;1.97;;;1.50;;
15261;SDS011;7733;51.554;13.590;2023-02-05T11:21:18;4.33;;;3.60;;
15261;SDS011;7733;51.554;13.590;2023-02-05T11:23:52;3.00;;;2.70;;
15261;SDS011;7733;51.554;13.590;2023-02-05T11:26:22;3.83;;;3.07;;
15261;SDS011;7733;51.554;13.590;2023-02-05T11:28:52;7.47;;;5.30;;
15261;SDS011;7733;51.554;13.590;2023-02-05T11:33:45;1.80;;;1.70;;
15261;SDS011;7733;51.554;13.590;2023-02-05T11:36:16;9.00;;;6.00;;
15261;SDS011;7733;51.554;13.590;2023-02-05T11:38:49;5.87;;;5.07;;
15261;SDS011;7733;51.554;13.590;2023-02-05T11:44:16;7.27;;;6.47;;
15261;SDS011;7733;51.554;13.590;2023-02-05T11:46:49;6.60;;;5.53;;
15261;SDS011;7733;51.554;13.590;2023-02-05T11:49:22;5.20;;;4.70;;
15261;SDS011;7733;51.554;13.590;2023-02-05T11:51:56;5.60;;;3.37;;
15261;SDS011;7733;51.554;13.590;2023-02-05T11:54:30;4.80;;;3.77;;
15261;SDS011;7733;51.554;13.590;2023-02-05T11:59:41;1.97;;;1.87;;
15261;SDS011;7733;51.554;13.590;2023-02-05T12:02:39;2.00;;;1.90;;
15261;SDS011;7733;51.554;13.590;2023-02-05T12:05:23;2.17;;;1.50;;
15261;SDS011;7733;51.554;13.590;2023-02-05T12:14:21;2.63;;;2.10;;
15261;SDS011;7733;51.554;13.590;2023-02-05T12:28:13;4.30;;;3.83;;
15261;SDS011;7733;51.554;13.590;2023-02-05T12:39:53;6.77;;;6.07;;
15261;SDS011;7733;51.554;13.590;2023-02-05T12:51:17;4.00;;;3.70;;
15261;SDS011;7733;51.554;13.590;2023-02-05T12:57:13;3.40;;;2.50;;
15261;SDS011;7733;51.554;13.590;2023-02-05T12:59:59;3.83;;;3.50;;
15261;SDS011;7733;51.554;13.590;2023-02-05T13:08:48;3.50;;;3.27;;
15261;SDS011;7733;51.554;13.590;2023-02-05T13:14:33;36.73;;;16.10;;
15261;SDS011;7733;51.554;13.590;2023-02-05T13:20:05;4.30;;;3.90;;
15261;SDS011;7733;51.554;13.590;2023-02-05T13:22:51;2.90;;;2.70;;
15261;SDS011;7733;51.554;13.590;2023-02-05T13:25:44;2.20;;;2.00;;
15261;SDS011;7733;51.554;13.590;2023-02-05T13:28:35;2.40;;;2.23;;
15261;SDS011;7733;51.554;13.590;2023-02-05T13:34:01;2.50;;;2.30;;
15261;SDS011;7733;51.554;13.590;2023-02-05T13:39:14;5.37;;;4.73;;
15261;SDS011;7733;51.554;13.590;2023-02-05T13:45:06;8.13;;;7.33;;
15261;SDS011;7733;51.554;13.590;2023-02-05T13:59:41;2.70;;;2.30;;
15261;SDS011;7733;51.554;13.590;2023-02-05T14:02:23;3.50;;;3.20;;
15261;SDS011;7733;51.554;13.590;2023-02-05T14:04:56;2.60;;;2.40;;
15261;SDS011;7733;51.554;13.590;2023-02-05T14:07:30;2.77;;;2.57;;
15261;SDS011;7733;51.554;13.590;2023-02-05T14:10:26;2.83;;;2.63;;
15261;SDS011;7733;51.554;13.590;2023-02-05T14:13:06;3.20;;;2.90;;
15261;SDS011;7733;51.554;13.590;2023-02-05T14:15:36;4.97;;;4.47;;
15261;SDS011;7733;51.554;13.590;2023-02-05T14:18:05;3.97;;;3.13;;
15261;SDS011;7733;51.554;13.590;2023-02-05T14:20:35;3.27;;;3.07;;
15261;SDS011;7733;51.554;13.590;2023-02-05T14:23:11;3.43;;;2.27;;
15261;SDS011;7733;51.554;13.590;2023-02-05T14:26:12;3.20;;;2.90;;
15261;SDS011;7733;51.554;13.590;2023-02-05T14:28:45;6.70;;;4.87;;
15261;SDS011;7733;51.554;13.590;2023-02-05T14:36:58;2.60;;;2.40;;
15261;SDS011;7733;51.554;13.590;2023-02-05T14:39:26;4.20;;;4.00;;
15261;SDS011;7733;51.554;13.590;2023-02-05T14:41:58;3.27;;;2.80;;
15261;SDS011;7733;51.554;13.590;2023-02-05T14:44:31;2.70;;;2.30;;
15261;SDS011;7733;51.554;13.590;2023-02-05T14:49:43;3.40;;;3.17;;
15261;SDS011;7733;51.554;13.590;2023-02-05T14:52:19;4.40;;;4.00;;
15261;SDS011;7733;51.554;13.590;2023-02-05T15:05:56;3.60;;;3.40;;
15261;SDS011;7733;51.554;13.590;2023-02-05T15:19:32;4.47;;;4.17;;
15261;SDS011;7733;51.554;13.590;2023-02-05T15:22:08;4.80;;;4.50;;
15261;SDS011;7733;51.554;13.590;2023-02-05T15:25:01;4.13;;;3.73;;
15261;SDS011;7733;51.554;13.590;2023-02-05T15:27:40;3.60;;;3.27;;
15261;SDS011;7733;51.554;13.590;2023-02-05T15:30:15;3.00;;;2.80;;
15261;SDS011;7733;51.554;13.590;2023-02-05T15:32:51;3.30;;;3.10;;
15261;SDS011;7733;51.554;13.590;2023-02-05T15:35:27;5.67;;;5.07;;
15261;SDS011;7733;51.554;13.590;2023-02-05T15:37:58;7.80;;;7.10;;
15261;SDS011;7733;51.554;13.590;2023-02-05T15:40:48;10.47;;;9.13;;
15261;SDS011;7733;51.554;13.590;2023-02-05T15:43:18;16.07;;;13.67;;
15261;SDS011;7733;51.554;13.590;2023-02-05T15:45:50;16.67;;;13.90;;
15261;SDS011;7733;51.554;13.590;2023-02-05T15:48:25;9.37;;;8.43;;
15261;SDS011;7733;51.554;13.590;2023-02-05T15:50:56;24.20;;;17.47;;
15261;SDS011;7733;51.554;13.590;2023-02-05T15:53:47;28.83;;;20.93;;
15261;SDS011;7733;51.554;13.590;2023-02-05T15:56:15;9.37;;;7.40;;
15261;SDS011;7733;51.554;13.590;2023-02-05T15:59:10;6.30;;;5.70;;
15261;SDS011;7733;51.554;13.590;2023-02-05T16:02:27;5.67;;;5.13;;
15261;SDS011;7733;51.554;13.590;2023-02-05T16:04:50;5.00;;;4.60;;
15261;SDS011;7733;51.554;13.590;2023-02-05T16:07:24;5.30;;;4.80;;
15261;SDS011;7733;51.554;13.590;2023-02-05T16:09:59;4.87;;;4.30;;
15261;SDS011;7733;51.554;13.590;2023-02-05T16:12:28;4.00;;;3.70;;
15261;SDS011;7733;51.554;13.590;2023-02-05T16:14:59;3.03;;;2.83;;
15261;SDS011;7733;51.554;13.590;2023-02-05T16:17:48;5.20;;;4.80;;
15261;SDS011;7733;51.554;13.590;2023-02-05T16:20:22;3.97;;;3.67;;
15261;SDS011;7733;51.554;13.590;2023-02-05T16:23:03;3.00;;;2.80;;
15261;SDS011;7733;51.554;13.590;2023-02-05T16:25:46;3.23;;;3.03;;
15261;SDS011;7733;51.554;13.590;2023-02-05T16:28:23;3.37;;;3.17;;
15261;SDS011;7733;51.554;13.590;2023-02-05T16:31:21;8.60;;;7.83;;
15261;SDS011;7733;51.554;13.590;2023-02-05T16:33:52;13.47;;;11.80;;
15261;SDS011;7733;51.554;13.590;2023-02-05T16:36:29;2.60;;;2.40;;
15261;SDS011;7733;51.554;13.590;2023-02-05T16:39:02;2.73;;;2.53;;
15261;SDS011;7733;51.554;13.590;2023-02-05T16:41:40;2.60;;;2.40;;
15261;SDS011;7733;51.554;13.590;2023-02-05T16:44:25;2.40;;;2.30;;
15261;SDS011;7733;51.554;13.590;2023-02-05T16:47:13;2.30;;;2.20;;
15261;SDS011;7733;51.554;13.590;2023-02-05T16:49:45;3.77;;;2.63;;
15261;SDS011;7733;51.554;13.590;2023-02-05T16:52:33;2.20;;;2.10;;
15261;SDS011;7733;51.554;13.590;2023-02-05T16:57:52;3.00;;;2.80;;
15261;SDS011;7733;51.554;13.590;2023-02-05T17:00:27;7.90;;;7.10;;
15261;SDS011;7733;51.554;13.590;2023-02-05T17:02:56;14.60;;;9.43;;
15261;SDS011;7733;51.554;13.590;2023-02-05T17:07:59;4.37;;;3.63;;
15261;SDS011;7733;51.554;13.590;2023-02-05T17:10:47;3.20;;;3.00;;
15261;SDS011;7733;51.554;13.590;2023-02-05T17:18:55;3.93;;;3.40;;
15261;SDS011;7733;51.554;13.590;2023-02-05T17:24:02;37.67;;;21.37;;
15261;SDS011;7733;51.554;13.590;2023-02-05T17:26:35;25.00;;;16.00;;
15261;SDS011;7733;51.554;13.590;2023-02-05T17:29:05;18.83;;;11.77;;
15261;SDS011;7733;51.554;13.590;2023-02-05T17:31:37;28.53;;;16.17;;
15261;SDS011;7733;51.554;13.590;2023-02-05T17:34:04;15.37;;;8.90;;
15261;SDS011;7733;51.554;13.590;2023-02-05T17:36:30;11.47;;;8.27;;
15261;SDS011;7733;51.554;13.590;2023-02-05T17:38:56;23.07;;;13.90;;
15261;SDS011;7733;51.554;13.590;2023-02-05T17:41:23;20.93;;;13.43;;
15261;SDS011;7733;51.554;13.590;2023-02-05T17:44:13;17.67;;;10.87;;
15261;SDS011;7733;51.554;13.590;2023-02-05T17:46:40;21.30;;;15.77;;
15261;SDS011;7733;51.554;13.590;2023-02-05T17:49:08;19.77;;;13.93;;
15261;SDS011;7733;51.554;13.590;2023-02-05T17:51:34;29.67;;;21.37;;
15261;SDS011;7733;51.554;13.590;2023-02-05T17:54:08;26.80;;;18.97;;
15261;SDS011;7733;51.554;13.590;2023-02-05T17:56:41;8.93;;;8.03;;
15261;SDS011;7733;51.554;13.590;2023-02-05T17:59:12;9.00;;;8.10;;
15261;SDS011;7733;51.554;13.590;2023-02-05T18:01:45;19.37;;;15.00;;
15261;SDS011;7733;51.554;13.590;2023-02-05T18:04:12;23.23;;;15.93;;
15261;SDS011;7733;51.554;13.590;2023-02-05T18:06:40;7.53;;;6.17;;
15261;SDS011;7733;51.554;13.590;2023-02-05T18:09:07;13.53;;;8.63;;
15261;SDS011;7733;51.554;13.590;2023-02-05T18:11:33;3.00;;;2.73;;
15261;SDS011;7733;51.554;13.590;2023-02-05T18:14:00;7.20;;;6.63;;
15261;SDS011;7733;51.554;13.590;2023-02-05T18:16:26;17.03;;;13.83;;
15261;SDS011;7733;51.554;13.590;2023-02-05T18:18:52;9.40;;;8.03;;
15261;SDS011;7733;51.554;13.590;2023-02-05T18:21:18;28.37;;;17.00;;
15261;SDS011;7733;51.554;13.590;2023-02-05T18:23:45;31.23;;;18.33;;
15261;SDS011;7733;51.554;13.590;2023-02-05T18:26:14;24.23;;;15.87;;
15261;SDS011;7733;51.554;13.590;2023-02-05T18:28:40;21.70;;;15.80;;
15261;SDS011;7733;51.554;13.590;2023-02-05T18:31:07;16.90;;;12.40;;